sensor_id;sensor_type;location;lat;lon;timestamp;P1;durP1;ratioP1;P2;durP2;ratioP2
39502;SDS011;26970;49.900;10.774;2023-04-03T00:00:53;5.78;;;2.70;;
39502;SDS011;26970;49.900;10.774;2023-04-03T00:03:19;3.38;;;2.33;;
39502;SDS011;26970;49.900;10.774;2023-04-03T00:05:45;7.45;;;2.72;;
39502;SDS011;26970;49.900;10.774;2023-04-03T00:08:11;4.65;;;2.45;;
39502;SDS011;26970;49.900;10.774;2023-04-03T00:10:37;7.05;;;2.47;;
39502;SDS011;26970;49.900;10.774;2023-04-03T00:13:03;4.65;;;2.42;;
39502;SDS011;26970;49.900;10.774;2023-04-03T00:15:30;6.45;;;2.58;;
39502;SDS011;26970;49.900;10.774;2023-04-03T00:17:55;4.60;;;2.30;;
39502;SDS011;26970;49.900;10.774;2023-04-03T00:20:21;8.57;;;2.78;;
39502;SDS011;26970;49.900;10.774;2023-04-03T00:22:47;7.13;;;3.35;;
39502;SDS011;26970;49.900;10.774;2023-04-03T00:25:13;5.68;;;3.15;;
39502;SDS011;26970;49.900;10.774;2023-04-03T00:27:39;6.47;;;3.05;;
39502;SDS011;26970;49.900;10.774;2023-04-03T00:30:06;7.97;;;3.15;;
39502;SDS011;26970;49.900;10.774;2023-04-03T00:32:33;7.85;;;3.15;;
39502;SDS011;26970;49.900;10.774;2023-04-03T00:34:59;5.97;;;3.30;;
39502;SDS011;26970;49.900;10.774;2023-04-03T00:37:25;5.63;;;3.20;;
39502;SDS011;26970;49.900;10.774;2023-04-03T00:39:50;4.22;;;2.63;;
39502;SDS011;26970;49.900;10.774;2023-04-03T00:42:16;9.15;;;2.95;;
39502;SDS011;26970;49.900;10.774;2023-04-03T00:47:09;6.32;;;2.28;;
39502;SDS011;26970;49.900;10.774;2023-04-03T00:49:37;4.72;;;2.63;;
39502;SDS011;26970;49.900;10.774;2023-04-03T00:52:03;7.03;;;2.53;;
39502;SDS011;26970;49.900;10.774;2023-04-03T00:54:35;5.73;;;2.60;;
39502;SDS011;26970;49.900;10.774;2023-04-03T00:57:02;4.93;;;2.42;;
39502;SDS011;26970;49.900;10.774;2023-04-03T00:59:31;4.55;;;2.20;;
39502;SDS011;26970;49.900;10.774;2023-04-03T01:01:59;7.70;;;3.58;;
39502;SDS011;26970;49.900;10.774;2023-04-03T01:07:05;3.55;;;2.50;;
39502;SDS011;26970;49.900;10.774;2023-04-03T01:09:35;4.82;;;2.78;;
39502;SDS011;26970;49.900;10.774;2023-04-03T01:14:55;6.93;;;2.65;;
39502;SDS011;26970;49.900;10.774;2023-04-03T01:17:33;3.83;;;2.53;;
39502;SDS011;26970;49.900;10.774;2023-04-03T01:22:56;4.78;;;2.75;;
39502;SDS011;26970;49.900;10.774;2023-04-03T01:25:49;3.92;;;2.50;;
39502;SDS011;26970;49.900;10.774;2023-04-03T01:28:29;8.52;;;3.50;;
39502;SDS011;26970;49.900;10.774;2023-04-03T01:31:15;4.15;;;2.60;;
39502;SDS011;26970;49.900;10.774;2023-04-03T01:33:53;6.78;;;2.92;;
39502;SDS011;26970;49.900;10.774;2023-04-03T01:36:23;5.75;;;3.25;;
39502;SDS011;26970;49.900;10.774;2023-04-03T01:38:52;5.57;;;3.00;;
39502;SDS011;26970;49.900;10.774;2023-04-03T01:41:18;8.85;;;2.90;;
39502;SDS011;26970;49.900;10.774;2023-04-03T01:43:46;4.95;;;2.92;;
39502;SDS011;26970;49.900;10.774;2023-04-03T01:46:11;5.63;;;3.17;;
39502;SDS011;26970;49.900;10.774;2023-04-03T01:48:37;5.43;;;2.90;;
39502;SDS011;26970;49.900;10.774;2023-04-03T01:51:03;5.15;;;2.40;;
39502;SDS011;26970;49.900;10.774;2023-04-03T01:53:29;4.97;;;3.15;;
39502;SDS011;26970;49.900;10.774;2023-04-03T01:55:55;4.22;;;2.88;;
39502;SDS011;26970;49.900;10.774;2023-04-03T01:58:20;5.63;;;3.10;;
39502;SDS011;26970;49.900;10.774;2023-04-03T02:00:46;5.68;;;3.03;;
39502;SDS011;26970;49.900;10.774;2023-04-03T02:03:12;6.28;;;3.58;;
39502;SDS011;26970;49.900;10.774;2023-04-03T02:05:37;5.43;;;3.30;;
39502;SDS011;26970;49.900;10.774;2023-04-03T02:08:03;5.72;;;3.83;;
39502;SDS011;26970;49.900;10.774;2023-04-03T02:10:29;6.63;;;3.20;;
39502;SDS011;26970;49.900;10.774;2023-04-03T02:12:54;6.53;;;3.20;;
39502;SDS011;26970;49.900;10.774;2023-04-03T02:15:20;4.75;;;3.33;;
39502;SDS011;26970;49.900;10.774;2023-04-03T02:17:46;7.28;;;3.67;;
39502;SDS011;26970;49.900;10.774;2023-04-03T02:20:11;5.28;;;2.90;;
39502;SDS011;26970;49.900;10.774;2023-04-03T02:22:37;7.95;;;3.33;;
39502;SDS011;26970;49.900;10.774;2023-04-03T02:25:03;8.43;;;3.33;;
39502;SDS011;26970;49.900;10.774;2023-04-03T02:27:29;6.63;;;3.30;;
39502;SDS011;26970;49.900;10.774;2023-04-03T02:29:54;5.35;;;3.22;;
39502;SDS011;26970;49.900;10.774;2023-04-03T02:32:20;9.07;;;3.47;;
39502;SDS011;26970;49.900;10.774;2023-04-03T02:34:46;6.35;;;3.45;;
39502;SDS011;26970;49.900;10.774;2023-04-03T02:37:11;9.88;;;3.42;;
39502;SDS011;26970;49.900;10.774;2023-04-03T02:39:37;11.40;;;3.33;;
39502;SDS011;26970;49.900;10.774;2023-04-03T02:42:03;8.93;;;3.90;;
39502;SDS011;26970;49.900;10.774;2023-04-03T02:44:28;8.73;;;4.20;;
39502;SDS011;26970;49.900;10.774;2023-04-03T02:46:54;8.65;;;3.83;;
39502;SDS011;26970;49.900;10.774;2023-04-03T02:49:20;5.13;;;3.38;;
39502;SDS011;26970;49.900;10.774;2023-04-03T02:51:46;10.43;;;4.05;;
39502;SDS011;26970;49.900;10.774;2023-04-03T02:54:12;6.55;;;4.18;;
39502;SDS011;26970;49.900;10.774;2023-04-03T02:56:38;8.63;;;4.13;;
39502;SDS011;26970;49.900;10.774;2023-04-03T02:59:04;8.07;;;4.20;;
39502;SDS011;26970;49.900;10.774;2023-04-03T03:01:30;6.93;;;4.22;;
39502;SDS011;26970;49.900;10.774;2023-04-03T03:03:57;8.95;;;4.82;;
39502;SDS011;26970;49.900;10.774;2023-04-03T03:06:24;4.97;;;3.35;;
39502;SDS011;26970;49.900;10.774;2023-04-03T03:08:49;8.85;;;4.00;;
39502;SDS011;26970;49.900;10.774;2023-04-03T03:11:15;7.65;;;3.80;;
39502;SDS011;26970;49.900;10.774;2023-04-03T03:13:41;6.82;;;4.13;;
39502;SDS011;26970;49.900;10.774;2023-04-03T03:16:06;8.10;;;3.67;;
39502;SDS011;26970;49.900;10.774;2023-04-03T03:18:32;10.32;;;3.75;;
39502;SDS011;26970;49.900;10.774;2023-04-03T03:20:59;7.57;;;4.05;;
39502;SDS011;26970;49.900;10.774;2023-04-03T03:23:27;9.25;;;4.05;;
39502;SDS011;26970;49.900;10.774;2023-04-03T03:26:01;3.83;;;2.65;;
39502;SDS011;26970;49.900;10.774;2023-04-03T03:28:29;6.22;;;4.07;;
39502;SDS011;26970;49.900;10.774;2023-04-03T03:30:56;6.47;;;3.42;;
39502;SDS011;26970;49.900;10.774;2023-04-03T03:33:23;5.43;;;2.95;;
39502;SDS011;26970;49.900;10.774;2023-04-03T03:35:50;5.43;;;3.67;;
39502;SDS011;26970;49.900;10.774;2023-04-03T03:38:16;4.85;;;3.20;;
39502;SDS011;26970;49.900;10.774;2023-04-03T03:40:42;8.35;;;3.72;;
39502;SDS011;26970;49.900;10.774;2023-04-03T03:43:08;8.35;;;3.75;;
39502;SDS011;26970;49.900;10.774;2023-04-03T03:45:33;8.77;;;3.70;;
39502;SDS011;26970;49.900;10.774;2023-04-03T03:48:00;6.90;;;3.90;;
39502;SDS011;26970;49.900;10.774;2023-04-03T03:50:26;7.70;;;3.75;;
39502;SDS011;26970;49.900;10.774;2023-04-03T03:52:52;3.50;;;2.25;;
39502;SDS011;26970;49.900;10.774;2023-04-03T03:55:17;7.05;;;2.97;;
39502;SDS011;26970;49.900;10.774;2023-04-03T03:57:43;8.40;;;3.67;;
39502;SDS011;26970;49.900;10.774;2023-04-03T04:00:09;7.60;;;3.95;;
39502;SDS011;26970;49.900;10.774;2023-04-03T04:02:35;6.85;;;3.53;;
39502;SDS011;26970;49.900;10.774;2023-04-03T04:05:01;7.93;;;3.40;;
39502;SDS011;26970;49.900;10.774;2023-04-03T04:07:26;8.68;;;4.00;;
39502;SDS011;26970;49.900;10.774;2023-04-03T04:09:54;7.35;;;3.53;;
39502;SDS011;26970;49.900;10.774;2023-04-03T04:12:19;3.40;;;2.72;;
39502;SDS011;26970;49.900;10.774;2023-04-03T04:14:45;11.60;;;3.45;;
39502;SDS011;26970;49.900;10.774;2023-04-03T04:17:14;5.32;;;3.38;;
39502;SDS011;26970;49.900;10.774;2023-04-03T04:19:39;5.88;;;3.03;;
39502;SDS011;26970;49.900;10.774;2023-04-03T04:22:05;5.45;;;3.17;;
39502;SDS011;26970;49.900;10.774;2023-04-03T04:24:31;6.85;;;2.92;;
39502;SDS011;26970;49.900;10.774;2023-04-03T04:26:57;7.75;;;2.60;;
39502;SDS011;26970;49.900;10.774;2023-04-03T04:29:22;6.05;;;3.05;;
39502;SDS011;26970;49.900;10.774;2023-04-03T04:31:48;6.13;;;3.15;;
39502;SDS011;26970;49.900;10.774;2023-04-03T04:34:14;4.93;;;2.67;;
39502;SDS011;26970;49.900;10.774;2023-04-03T04:36:40;6.53;;;3.28;;
39502;SDS011;26970;49.900;10.774;2023-04-03T04:39:05;7.45;;;3.10;;
39502;SDS011;26970;49.900;10.774;2023-04-03T04:41:31;8.25;;;3.22;;
39502;SDS011;26970;49.900;10.774;2023-04-03T04:43:57;6.35;;;2.92;;
39502;SDS011;26970;49.900;10.774;2023-04-03T04:46:23;7.15;;;3.22;;
39502;SDS011;26970;49.900;10.774;2023-04-03T04:48:48;7.10;;;3.15;;
39502;SDS011;26970;49.900;10.774;2023-04-03T04:51:14;4.43;;;2.80;;
39502;SDS011;26970;49.900;10.774;2023-04-03T04:53:41;7.05;;;3.20;;
39502;SDS011;26970;49.900;10.774;2023-04-03T04:56:07;10.60;;;4.15;;
39502;SDS011;26970;49.900;10.774;2023-04-03T04:58:33;7.53;;;3.05;;
39502;SDS011;26970;49.900;10.774;2023-04-03T05:01:00;14.23;;;4.28;;
39502;SDS011;26970;49.900;10.774;2023-04-03T05:03:29;3.92;;;2.70;;
39502;SDS011;26970;49.900;10.774;2023-04-03T05:05:55;5.70;;;3.13;;
39502;SDS011;26970;49.900;10.774;2023-04-03T05:08:21;8.05;;;3.63;;
39502;SDS011;26970;49.900;10.774;2023-04-03T05:10:46;8.00;;;3.63;;
39502;SDS011;26970;49.900;10.774;2023-04-03T05:13:12;4.53;;;2.95;;
39502;SDS011;26970;49.900;10.774;2023-04-03T05:15:38;6.80;;;3.25;;
39502;SDS011;26970;49.900;10.774;2023-04-03T05:18:04;7.85;;;4.10;;
39502;SDS011;26970;49.900;10.774;2023-04-03T05:20:30;9.40;;;4.00;;
39502;SDS011;26970;49.900;10.774;2023-04-03T05:22:56;8.98;;;3.10;;
39502;SDS011;26970;49.900;10.774;2023-04-03T05:25:22;6.32;;;3.40;;
39502;SDS011;26970;49.900;10.774;2023-04-03T05:27:48;9.20;;;3.60;;
39502;SDS011;26970;49.900;10.774;2023-04-03T05:30:14;9.57;;;3.28;;
39502;SDS011;26970;49.900;10.774;2023-04-03T05:32:40;4.78;;;3.03;;
39502;SDS011;26970;49.900;10.774;2023-04-03T05:35:06;5.18;;;2.85;;
39502;SDS011;26970;49.900;10.774;2023-04-03T05:37:32;6.15;;;3.22;;
39502;SDS011;26970;49.900;10.774;2023-04-03T05:39:58;9.30;;;3.53;;
39502;SDS011;26970;49.900;10.774;2023-04-03T05:42:23;3.65;;;2.13;;
39502;SDS011;26970;49.900;10.774;2023-04-03T05:44:49;10.00;;;4.07;;
39502;SDS011;26970;49.900;10.774;2023-04-03T05:47:15;5.10;;;2.72;;
39502;SDS011;26970;49.900;10.774;2023-04-03T05:49:41;6.75;;;2.80;;
39502;SDS011;26970;49.900;10.774;2023-04-03T05:52:25;4.82;;;2.10;;
39502;SDS011;26970;49.900;10.774;2023-04-03T05:54:53;7.47;;;3.38;;
39502;SDS011;26970;49.900;10.774;2023-04-03T05:57:19;5.95;;;2.67;;
39502;SDS011;26970;49.900;10.774;2023-04-03T05:59:46;3.92;;;2.83;;
39502;SDS011;26970;49.900;10.774;2023-04-03T06:02:13;4.75;;;2.88;;
39502;SDS011;26970;49.900;10.774;2023-04-03T06:04:43;5.40;;;2.67;;
39502;SDS011;26970;49.900;10.774;2023-04-03T06:07:17;4.38;;;2.60;;
39502;SDS011;26970;49.900;10.774;2023-04-03T06:09:45;4.63;;;2.67;;
39502;SDS011;26970;49.900;10.774;2023-04-03T06:12:12;4.45;;;2.75;;
39502;SDS011;26970;49.900;10.774;2023-04-03T06:14:38;6.05;;;3.15;;
39502;SDS011;26970;49.900;10.774;2023-04-03T06:17:04;6.63;;;3.28;;
39502;SDS011;26970;49.900;10.774;2023-04-03T06:19:29;8.73;;;4.25;;
39502;SDS011;26970;49.900;10.774;2023-04-03T06:21:55;3.17;;;2.28;;
39502;SDS011;26970;49.900;10.774;2023-04-03T06:24:21;6.35;;;3.33;;
39502;SDS011;26970;49.900;10.774;2023-04-03T06:26:48;2.95;;;2.47;;
39502;SDS011;26970;49.900;10.774;2023-04-03T06:29:16;4.55;;;3.13;;
39502;SDS011;26970;49.900;10.774;2023-04-03T06:31:42;6.82;;;3.72;;
39502;SDS011;26970;49.900;10.774;2023-04-03T06:34:08;4.57;;;2.42;;
39502;SDS011;26970;49.900;10.774;2023-04-03T06:36:34;4.57;;;2.83;;
39502;SDS011;26970;49.900;10.774;2023-04-03T06:39:00;3.28;;;2.20;;
39502;SDS011;26970;49.900;10.774;2023-04-03T06:41:27;6.32;;;2.92;;
39502;SDS011;26970;49.900;10.774;2023-04-03T06:43:53;4.72;;;2.80;;
39502;SDS011;26970;49.900;10.774;2023-04-03T06:46:22;5.25;;;2.30;;
39502;SDS011;26970;49.900;10.774;2023-04-03T06:48:48;7.38;;;3.25;;
39502;SDS011;26970;49.900;10.774;2023-04-03T06:51:24;6.20;;;3.58;;
39502;SDS011;26970;49.900;10.774;2023-04-03T06:53:52;8.38;;;3.67;;
39502;SDS011;26970;49.900;10.774;2023-04-03T06:56:19;8.55;;;3.05;;
39502;SDS011;26970;49.900;10.774;2023-04-03T06:58:45;4.57;;;2.78;;
39502;SDS011;26970;49.900;10.774;2023-04-03T07:01:12;3.92;;;2.63;;
39502;SDS011;26970;49.900;10.774;2023-04-03T07:03:39;3.90;;;2.20;;
39502;SDS011;26970;49.900;10.774;2023-04-03T07:06:05;4.75;;;2.42;;
39502;SDS011;26970;49.900;10.774;2023-04-03T07:08:32;5.82;;;3.10;;
39502;SDS011;26970;49.900;10.774;2023-04-03T07:10:58;8.07;;;2.90;;
39502;SDS011;26970;49.900;10.774;2023-04-03T07:13:24;5.85;;;2.97;;
39502;SDS011;26970;49.900;10.774;2023-04-03T07:15:50;4.25;;;2.80;;
39502;SDS011;26970;49.900;10.774;2023-04-03T07:18:15;5.95;;;3.05;;
39502;SDS011;26970;49.900;10.774;2023-04-03T07:20:44;10.52;;;2.85;;
39502;SDS011;26970;49.900;10.774;2023-04-03T07:23:10;7.55;;;2.95;;
39502;SDS011;26970;49.900;10.774;2023-04-03T07:25:36;6.38;;;2.40;;
39502;SDS011;26970;49.900;10.774;2023-04-03T07:28:02;5.65;;;2.25;;
39502;SDS011;26970;49.900;10.774;2023-04-03T07:30:28;4.55;;;2.50;;
39502;SDS011;26970;49.900;10.774;2023-04-03T07:32:54;6.10;;;2.63;;
39502;SDS011;26970;49.900;10.774;2023-04-03T07:35:20;6.53;;;3.30;;
39502;SDS011;26970;49.900;10.774;2023-04-03T07:37:46;5.43;;;3.22;;
39502;SDS011;26970;49.900;10.774;2023-04-03T07:40:11;6.05;;;3.25;;
39502;SDS011;26970;49.900;10.774;2023-04-03T07:42:37;7.25;;;3.78;;
39502;SDS011;26970;49.900;10.774;2023-04-03T07:45:03;5.80;;;3.22;;
39502;SDS011;26970;49.900;10.774;2023-04-03T07:47:29;5.47;;;3.22;;
39502;SDS011;26970;49.900;10.774;2023-04-03T07:49:56;4.68;;;3.22;;
39502;SDS011;26970;49.900;10.774;2023-04-03T07:52:22;10.20;;;2.95;;
39502;SDS011;26970;49.900;10.774;2023-04-03T07:54:48;9.05;;;3.83;;
39502;SDS011;26970;49.900;10.774;2023-04-03T07:57:13;4.95;;;2.97;;
39502;SDS011;26970;49.900;10.774;2023-04-03T07:59:39;6.47;;;3.35;;
39502;SDS011;26970;49.900;10.774;2023-04-03T08:02:08;4.60;;;2.88;;
39502;SDS011;26970;49.900;10.774;2023-04-03T08:04:37;7.18;;;3.10;;
39502;SDS011;26970;49.900;10.774;2023-04-03T08:07:02;5.60;;;2.83;;
39502;SDS011;26970;49.900;10.774;2023-04-03T08:09:28;3.65;;;2.45;;
39502;SDS011;26970;49.900;10.774;2023-04-03T08:11:53;3.67;;;2.28;;
39502;SDS011;26970;49.900;10.774;2023-04-03T08:14:19;8.75;;;3.85;;
39502;SDS011;26970;49.900;10.774;2023-04-03T08:16:46;7.15;;;3.58;;
39502;SDS011;26970;49.900;10.774;2023-04-03T08:19:13;4.45;;;2.88;;
39502;SDS011;26970;49.900;10.774;2023-04-03T08:21:41;3.92;;;2.35;;
39502;SDS011;26970;49.900;10.774;2023-04-03T08:24:07;6.15;;;2.85;;
39502;SDS011;26970;49.900;10.774;2023-04-03T08:26:33;10.95;;;3.67;;
39502;SDS011;26970;49.900;10.774;2023-04-03T08:28:59;5.97;;;3.13;;
39502;SDS011;26970;49.900;10.774;2023-04-03T08:31:25;7.18;;;3.28;;
39502;SDS011;26970;49.900;10.774;2023-04-03T08:33:51;8.45;;;2.67;;
39502;SDS011;26970;49.900;10.774;2023-04-03T08:36:21;6.95;;;3.05;;
39502;SDS011;26970;49.900;10.774;2023-04-03T08:38:49;4.27;;;2.83;;
39502;SDS011;26970;49.900;10.774;2023-04-03T08:46:23;7.05;;;2.63;;
39502;SDS011;26970;49.900;10.774;2023-04-03T08:48:57;3.40;;;2.13;;
39502;SDS011;26970;49.900;10.774;2023-04-03T08:51:24;4.72;;;1.88;;
39502;SDS011;26970;49.900;10.774;2023-04-03T08:53:57;3.92;;;2.20;;
39502;SDS011;26970;49.900;10.774;2023-04-03T08:56:27;4.55;;;2.20;;
39502;SDS011;26970;49.900;10.774;2023-04-03T08:58:59;4.53;;;2.80;;
39502;SDS011;26970;49.900;10.774;2023-04-03T09:01:38;3.90;;;2.20;;
39502;SDS011;26970;49.900;10.774;2023-04-03T09:04:10;5.55;;;1.60;;
39502;SDS011;26970;49.900;10.774;2023-04-03T09:06:42;10.05;;;2.92;;
39502;SDS011;26970;49.900;10.774;2023-04-03T09:15:01;3.63;;;2.15;;
39502;SDS011;26970;49.900;10.774;2023-04-03T09:20:24;3.28;;;1.80;;
39502;SDS011;26970;49.900;10.774;2023-04-03T09:22:56;3.85;;;1.92;;
39502;SDS011;26970;49.900;10.774;2023-04-03T09:27:50;4.93;;;2.05;;
39502;SDS011;26970;49.900;10.774;2023-04-03T09:30:21;3.53;;;1.90;;
39502;SDS011;26970;49.900;10.774;2023-04-03T09:32:50;5.03;;;2.65;;
39502;SDS011;26970;49.900;10.774;2023-04-03T09:35:28;4.38;;;2.05;;
39502;SDS011;26970;49.900;10.774;2023-04-03T09:40:38;4.07;;;2.00;;
39502;SDS011;26970;49.900;10.774;2023-04-03T09:45:51;4.18;;;2.40;;
39502;SDS011;26970;49.900;10.774;2023-04-03T09:48:22;3.53;;;2.00;;
39502;SDS011;26970;49.900;10.774;2023-04-03T09:55:56;5.13;;;1.95;;
39502;SDS011;26970;49.900;10.774;2023-04-03T09:58:33;3.05;;;1.92;;
39502;SDS011;26970;49.900;10.774;2023-04-03T10:01:05;7.82;;;2.00;;
39502;SDS011;26970;49.900;10.774;2023-04-03T10:03:45;4.47;;;2.03;;
39502;SDS011;26970;49.900;10.774;2023-04-03T10:06:22;4.25;;;2.17;;
39502;SDS011;26970;49.900;10.774;2023-04-03T10:08:59;3.70;;;1.70;;
39502;SDS011;26970;49.900;10.774;2023-04-03T10:11:27;3.97;;;2.17;;
39502;SDS011;26970;49.900;10.774;2023-04-03T10:13:55;2.67;;;1.83;;
39502;SDS011;26970;49.900;10.774;2023-04-03T10:19:41;2.30;;;1.90;;
39502;SDS011;26970;49.900;10.774;2023-04-03T10:22:09;3.83;;;2.15;;
39502;SDS011;26970;49.900;10.774;2023-04-03T10:33:34;5.10;;;2.10;;
39502;SDS011;26970;49.900;10.774;2023-04-03T10:39:08;1.60;;;1.25;;
39502;SDS011;26970;49.900;10.774;2023-04-03T10:41:59;4.35;;;1.73;;
39502;SDS011;26970;49.900;10.774;2023-04-03T10:50:23;2.55;;;1.70;;
39502;SDS011;26970;49.900;10.774;2023-04-03T10:57:52;3.08;;;1.60;;
39502;SDS011;26970;49.900;10.774;2023-04-03T11:00:41;6.95;;;2.30;;
39502;SDS011;26970;49.900;10.774;2023-04-03T11:03:17;2.45;;;1.70;;
39502;SDS011;26970;49.900;10.774;2023-04-03T11:05:53;1.88;;;1.35;;
39502;SDS011;26970;49.900;10.774;2023-04-03T11:08:27;2.55;;;1.38;;
39502;SDS011;26970;49.900;10.774;2023-04-03T11:10:59;4.70;;;1.45;;
39502;SDS011;26970;49.900;10.774;2023-04-03T11:15:57;3.67;;;1.60;;
39502;SDS011;26970;49.900;10.774;2023-04-03T11:18:43;4.63;;;1.63;;
39502;SDS011;26970;49.900;10.774;2023-04-03T11:21:26;4.63;;;2.35;;
39502;SDS011;26970;49.900;10.774;2023-04-03T11:23:57;1.70;;;1.33;;
39502;SDS011;26970;49.900;10.774;2023-04-03T11:26:26;3.53;;;1.58;;
39502;SDS011;26970;49.900;10.774;2023-04-03T11:28:59;1.92;;;1.52;;
39502;SDS011;26970;49.900;10.774;2023-04-03T11:36:57;4.90;;;1.80;;
39502;SDS011;26970;49.900;10.774;2023-04-03T11:39:26;2.08;;;1.40;;
39502;SDS011;26970;49.900;10.774;2023-04-03T11:44:41;5.78;;;1.75;;
39502;SDS011;26970;49.900;10.774;2023-04-03T11:47:11;5.15;;;1.83;;
39502;SDS011;26970;49.900;10.774;2023-04-03T11:50:02;4.07;;;2.10;;
39502;SDS011;26970;49.900;10.774;2023-04-03T11:58:03;6.35;;;1.98;;
39502;SDS011;26970;49.900;10.774;2023-04-03T12:13:40;2.53;;;1.83;;
39502;SDS011;26970;49.900;10.774;2023-04-03T12:18:55;2.47;;;1.52;;
39502;SDS011;26970;49.900;10.774;2023-04-03T12:24:16;2.03;;;1.60;;
39502;SDS011;26970;49.900;10.774;2023-04-03T12:32:04;6.88;;;2.10;;
39502;SDS011;26970;49.900;10.774;2023-04-03T12:40:16;2.80;;;1.85;;
39502;SDS011;26970;49.900;10.774;2023-04-03T12:43:07;2.47;;;1.58;;
39502;SDS011;26970;49.900;10.774;2023-04-03T12:45:47;2.22;;;1.40;;
39502;SDS011;26970;49.900;10.774;2023-04-03T12:50:41;3.80;;;1.70;;
39502;SDS011;26970;49.900;10.774;2023-04-03T12:53:19;4.43;;;2.05;;
39502;SDS011;26970;49.900;10.774;2023-04-03T12:55:53;5.75;;;1.92;;
39502;SDS011;26970;49.900;10.774;2023-04-03T12:58:23;3.67;;;1.97;;
39502;SDS011;26970;49.900;10.774;2023-04-03T13:03:27;5.85;;;1.88;;
39502;SDS011;26970;49.900;10.774;2023-04-03T13:06:01;4.32;;;2.40;;
39502;SDS011;26970;49.900;10.774;2023-04-03T13:08:30;2.15;;;1.58;;
39502;SDS011;26970;49.900;10.774;2023-04-03T13:13:53;2.70;;;1.73;;
39502;SDS011;26970;49.900;10.774;2023-04-03T13:16:24;3.33;;;1.70;;
39502;SDS011;26970;49.900;10.774;2023-04-03T13:18:53;2.55;;;1.05;;
39502;SDS011;26970;49.900;10.774;2023-04-03T13:21:25;1.63;;;1.15;;
39502;SDS011;26970;49.900;10.774;2023-04-03T13:24:01;3.05;;;1.80;;
39502;SDS011;26970;49.900;10.774;2023-04-03T13:26:29;5.70;;;2.00;;
39502;SDS011;26970;49.900;10.774;2023-04-03T13:29:05;3.22;;;1.60;;
39502;SDS011;26970;49.900;10.774;2023-04-03T13:31:47;4.00;;;1.55;;
39502;SDS011;26970;49.900;10.774;2023-04-03T13:34:29;5.18;;;1.88;;
39502;SDS011;26970;49.900;10.774;2023-04-03T13:37:11;3.33;;;1.90;;
39502;SDS011;26970;49.900;10.774;2023-04-03T13:42:34;4.22;;;1.60;;
39502;SDS011;26970;49.900;10.774;2023-04-03T13:47:43;2.20;;;1.52;;
39502;SDS011;26970;49.900;10.774;2023-04-03T13:50:15;2.83;;;1.50;;
39502;SDS011;26970;49.900;10.774;2023-04-03T13:52:51;1.77;;;1.45;;
39502;SDS011;26970;49.900;10.774;2023-04-03T13:55:30;2.58;;;1.60;;
39502;SDS011;26970;49.900;10.774;2023-04-03T13:58:02;1.08;;;1.08;;
39502;SDS011;26970;49.900;10.774;2023-04-03T14:00:49;3.75;;;1.88;;
39502;SDS011;26970;49.900;10.774;2023-04-03T14:03:31;3.90;;;1.85;;
39502;SDS011;26970;49.900;10.774;2023-04-03T14:06:04;4.10;;;1.60;;
39502;SDS011;26970;49.900;10.774;2023-04-03T14:08:35;6.47;;;1.70;;
39502;SDS011;26970;49.900;10.774;2023-04-03T14:11:02;3.73;;;1.40;;
39502;SDS011;26970;49.900;10.774;2023-04-03T14:13:33;1.98;;;1.50;;
39502;SDS011;26970;49.900;10.774;2023-04-03T14:16:05;3.83;;;1.80;;
39502;SDS011;26970;49.900;10.774;2023-04-03T14:18:33;3.90;;;1.90;;
39502;SDS011;26970;49.900;10.774;2023-04-03T14:20:59;2.92;;;1.42;;
39502;SDS011;26970;49.900;10.774;2023-04-03T14:23:25;2.10;;;1.52;;
39502;SDS011;26970;49.900;10.774;2023-04-03T14:25:51;3.33;;;1.60;;
39502;SDS011;26970;49.900;10.774;2023-04-03T14:28:23;3.83;;;1.45;;
39502;SDS011;26970;49.900;10.774;2023-04-03T14:30:52;2.38;;;1.40;;
39502;SDS011;26970;49.900;10.774;2023-04-03T14:33:20;1.85;;;1.23;;
39502;SDS011;26970;49.900;10.774;2023-04-03T14:35:47;2.45;;;1.40;;
39502;SDS011;26970;49.900;10.774;2023-04-03T14:38:24;4.20;;;1.90;;
39502;SDS011;26970;49.900;10.774;2023-04-03T14:40:58;2.70;;;1.63;;
39502;SDS011;26970;49.900;10.774;2023-04-03T14:43:26;2.88;;;1.17;;
39502;SDS011;26970;49.900;10.774;2023-04-03T14:45:55;2.65;;;1.45;;
39502;SDS011;26970;49.900;10.774;2023-04-03T14:48:22;3.30;;;2.03;;
39502;SDS011;26970;49.900;10.774;2023-04-03T14:50:50;3.42;;;1.80;;
39502;SDS011;26970;49.900;10.774;2023-04-03T14:53:18;2.58;;;1.77;;
39502;SDS011;26970;49.900;10.774;2023-04-03T14:55:51;1.73;;;1.25;;
39502;SDS011;26970;49.900;10.774;2023-04-03T14:58:20;4.05;;;1.90;;
39502;SDS011;26970;49.900;10.774;2023-04-03T15:00:48;3.67;;;1.70;;
39502;SDS011;26970;49.900;10.774;2023-04-03T15:03:17;2.85;;;1.63;;
39502;SDS011;26970;49.900;10.774;2023-04-03T15:05:46;1.93;;;1.20;;
39502;SDS011;26970;49.900;10.774;2023-04-03T15:08:18;2.25;;;1.50;;
39502;SDS011;26970;49.900;10.774;2023-04-03T15:10:45;2.30;;;1.30;;
39502;SDS011;26970;49.900;10.774;2023-04-03T15:13:26;2.20;;;1.50;;
39502;SDS011;26970;49.900;10.774;2023-04-03T15:15:55;2.25;;;1.60;;
39502;SDS011;26970;49.900;10.774;2023-04-03T15:18:27;4.88;;;1.48;;
39502;SDS011;26970;49.900;10.774;2023-04-03T15:21:00;2.28;;;1.58;;
39502;SDS011;26970;49.900;10.774;2023-04-03T15:23:26;3.75;;;1.50;;
39502;SDS011;26970;49.900;10.774;2023-04-03T15:25:53;5.32;;;2.47;;
39502;SDS011;26970;49.900;10.774;2023-04-03T15:28:36;5.75;;;1.60;;
39502;SDS011;26970;49.900;10.774;2023-04-03T15:31:04;2.40;;;1.67;;
39502;SDS011;26970;49.900;10.774;2023-04-03T15:33:30;8.05;;;2.10;;
39502;SDS011;26970;49.900;10.774;2023-04-03T15:35:56;3.15;;;1.38;;
39502;SDS011;26970;49.900;10.774;2023-04-03T15:38:21;3.03;;;1.73;;
39502;SDS011;26970;49.900;10.774;2023-04-03T15:40:47;4.30;;;1.52;;
39502;SDS011;26970;49.900;10.774;2023-04-03T15:43:13;1.73;;;1.30;;
39502;SDS011;26970;49.900;10.774;2023-04-03T15:45:39;4.93;;;1.67;;
39502;SDS011;26970;49.900;10.774;2023-04-03T15:48:05;1.65;;;1.25;;
39502;SDS011;26970;49.900;10.774;2023-04-03T15:50:31;1.98;;;1.30;;
39502;SDS011;26970;49.900;10.774;2023-04-03T15:52:58;2.03;;;1.77;;
39502;SDS011;26970;49.900;10.774;2023-04-03T15:55:24;4.70;;;1.30;;
39502;SDS011;26970;49.900;10.774;2023-04-03T15:57:51;2.92;;;1.88;;
39502;SDS011;26970;49.900;10.774;2023-04-03T16:00:17;2.22;;;1.50;;
39502;SDS011;26970;49.900;10.774;2023-04-03T16:02:44;3.33;;;1.40;;
39502;SDS011;26970;49.900;10.774;2023-04-03T16:05:11;1.65;;;1.45;;
39502;SDS011;26970;49.900;10.774;2023-04-03T16:07:39;1.85;;;1.48;;
39502;SDS011;26970;49.900;10.774;2023-04-03T16:10:06;6.10;;;2.00;;
39502;SDS011;26970;49.900;10.774;2023-04-03T16:12:33;2.38;;;1.55;;
39502;SDS011;26970;49.900;10.774;2023-04-03T16:14:59;3.78;;;1.70;;
39502;SDS011;26970;49.900;10.774;2023-04-03T16:17:25;2.30;;;1.40;;
39502;SDS011;26970;49.900;10.774;2023-04-03T16:19:52;2.35;;;1.88;;
39502;SDS011;26970;49.900;10.774;2023-04-03T16:22:19;1.42;;;1.33;;
39502;SDS011;26970;49.900;10.774;2023-04-03T16:24:45;1.30;;;1.20;;
39502;SDS011;26970;49.900;10.774;2023-04-03T16:27:10;2.63;;;1.55;;
39502;SDS011;26970;49.900;10.774;2023-04-03T16:29:36;1.50;;;1.40;;
39502;SDS011;26970;49.900;10.774;2023-04-03T16:32:02;3.58;;;1.48;;
39502;SDS011;26970;49.900;10.774;2023-04-03T16:34:28;1.92;;;1.50;;
39502;SDS011;26970;49.900;10.774;2023-04-03T16:36:55;3.47;;;2.03;;
39502;SDS011;26970;49.900;10.774;2023-04-03T16:39:21;2.15;;;1.13;;
39502;SDS011;26970;49.900;10.774;2023-04-03T16:41:46;4.40;;;2.00;;
39502;SDS011;26970;49.900;10.774;2023-04-03T16:44:12;2.30;;;1.27;;